Time;durP1;ratioP1;P1;durP2;ratioP2;P2;SDS_P1;SDS_P2;PMS_P1;PMS_P2;Temp;Humidity;BMP_temperature;BMP_pressure;BME280_temperature;BME280_humidity;BME280_pressure;Samples;Min_cycle;Max_cycle;Signal;HPM_P1;HPM_P2
2021/10/19 00:00:45;;;;;;;18.40;14.82;;;12.80;99.90;;;;;;4910636;29;20056;-69
2021/10/19 00:03:11;;;;;;;19.10;14.43;;;12.70;99.90;;;;;;4928040;29;20067;-69
2021/10/19 00:05:36;;;;;;;19.10;14.38;;;12.70;99.90;;;;;;4930782;29;20139;-69
2021/10/19 00:08:02;;;;;;;19.52;15.45;;;12.70;99.90;;;;;;4931723;29;20100;-69
2021/10/19 00:10:28;;;;;;;19.33;14.93;;;12.70;99.90;;;;;;4911761;29;20066;-69
2021/10/19 00:12:54;;;;;;;21.13;15.55;;;12.70;99.90;;;;;;4896132;29;20083;-69
2021/10/19 00:15:20;;;;;;;22.35;14.98;;;12.70;99.90;;;;;;4927315;29;20059;-69
2021/10/19 00:17:47;;;;;;;21.92;15.65;;;12.70;99.90;;;;;;4910710;29;20048;-68
2021/10/19 00:20:15;;;;;;;20.08;15.65;;;12.70;99.90;;;;;;4910666;29;20063;-68
2021/10/19 00:22:41;;;;;;;19.98;15.60;;;12.70;99.90;;;;;;4910899;29;20075;-68
2021/10/19 00:25:09;;;;;;;20.02;15.73;;;12.70;99.90;;;;;;4910258;29;20088;-69
2021/10/19 00:27:35;;;;;;;20.83;15.68;;;12.70;99.90;;;;;;4910457;29;20051;-69
2021/10/19 00:30:04;;;;;;;18.00;15.20;;;12.70;99.90;;;;;;4910596;29;20076;-69
2021/10/19 00:32:29;;;;;;;21.30;16.23;;;12.70;99.90;;;;;;4911124;29;20046;-69
2021/10/19 00:34:55;;;;;;;21.02;15.63;;;12.70;99.90;;;;;;4913822;29;20072;-69
2021/10/19 00:37:21;;;;;;;19.15;15.80;;;12.70;99.90;;;;;;4946175;29;20048;-68
2021/10/19 00:39:46;;;;;;;19.15;14.70;;;12.70;99.90;;;;;;4931108;29;20099;-68
2021/10/19 00:42:12;;;;;;;19.33;15.20;;;12.70;99.90;;;;;;4947201;29;20051;-68
2021/10/19 00:44:38;;;;;;;20.13;14.65;;;12.70;99.90;;;;;;4946903;29;20074;-69
2021/10/19 00:47:04;;;;;;;19.70;15.32;;;12.70;99.90;;;;;;4946440;29;20115;-68
2021/10/19 00:49:29;;;;;;;20.15;15.57;;;12.70;99.90;;;;;;4929178;29;20485;-69
2021/10/19 00:51:56;;;;;;;21.55;15.80;;;12.70;99.90;;;;;;4931437;29;20040;-68
2021/10/19 00:54:25;;;;;;;20.65;15.35;;;12.70;99.90;;;;;;4913532;29;20112;-69
2021/10/19 00:56:55;;;;;;;21.23;17.00;;;12.70;99.90;;;;;;4898468;29;20163;-68
2021/10/19 00:59:21;;;;;;;21.40;16.75;;;12.70;99.90;;;;;;4924885;29;20119;-68
2021/10/19 01:01:48;;;;;;;20.30;15.45;;;12.70;99.90;;;;;;4902296;29;20095;-68
2021/10/19 01:04:13;;;;;;;19.33;14.40;;;12.70;99.90;;;;;;4914598;29;20056;-68
2021/10/19 01:06:39;;;;;;;19.63;15.30;;;12.60;99.90;;;;;;4918901;29;20083;-68
2021/10/19 01:09:06;;;;;;;19.52;14.75;;;12.60;99.90;;;;;;4914898;29;20055;-68
2021/10/19 01:11:33;;;;;;;20.05;15.38;;;12.60;99.90;;;;;;4931637;29;20556;-68
2021/10/19 01:13:58;;;;;;;21.38;16.38;;;12.60;99.90;;;;;;4913803;29;20051;-68
2021/10/19 01:16:24;;;;;;;23.08;16.55;;;12.60;99.90;;;;;;4945646;29;20048;-68
2021/10/19 01:18:50;;;;;;;20.40;15.02;;;12.60;99.90;;;;;;4946649;29;20329;-68
2021/10/19 01:21:16;;;;;;;19.60;15.63;;;12.60;99.90;;;;;;4930347;29;20052;-68
2021/10/19 01:23:41;;;;;;;21.13;16.67;;;12.60;99.90;;;;;;4931720;29;20036;-68
2021/10/19 01:26:09;;;;;;;21.42;15.57;;;12.60;99.90;;;;;;4931031;29;20063;-68
2021/10/19 01:28:37;;;;;;;21.02;15.27;;;12.70;99.90;;;;;;4930431;29;20433;-68
2021/10/19 01:31:05;;;;;;;21.90;17.52;;;12.60;99.90;;;;;;4930600;29;20043;-69
2021/10/19 01:33:32;;;;;;;19.42;14.95;;;12.70;99.90;;;;;;4929263;29;20044;-68
2021/10/19 01:35:58;;;;;;;20.35;16.27;;;12.70;99.90;;;;;;4912306;29;20059;-68
2021/10/19 01:38:26;;;;;;;19.38;15.00;;;12.70;99.90;;;;;;4930100;29;20036;-68
2021/10/19 01:40:54;;;;;;;20.10;16.23;;;12.80;99.90;;;;;;4895228;29;20092;-69
2021/10/19 01:43:22;;;;;;;20.50;15.73;;;12.70;99.90;;;;;;4929689;29;20040;-69
2021/10/19 01:45:50;;;;;;;21.48;16.20;;;12.70;99.90;;;;;;4900906;29;20064;-68
2021/10/19 01:48:16;;;;;;;20.42;14.65;;;12.70;99.90;;;;;;4911931;29;20127;-68
2021/10/19 01:50:42;;;;;;;19.67;15.30;;;12.80;99.90;;;;;;4913904;29;20056;-68
2021/10/19 01:53:09;;;;;;;20.38;15.80;;;12.80;99.90;;;;;;4914171;29;20076;-68
2021/10/19 01:55:37;;;;;;;19.75;15.07;;;12.80;99.90;;;;;;4929209;29;20060;-68
2021/10/19 01:58:04;;;;;;;18.98;15.80;;;12.80;99.90;;;;;;4929604;29;20036;-68
2021/10/19 02:00:30;;;;;;;20.80;16.67;;;12.80;99.90;;;;;;4906122;29;20100;-68
2021/10/19 02:02:55;;;;;;;21.48;17.10;;;12.80;99.90;;;;;;4929793;29;20059;-68
2021/10/19 02:05:21;;;;;;;19.40;15.60;;;12.80;99.90;;;;;;4913778;29;20052;-68
2021/10/19 02:07:47;;;;;;;20.92;16.40;;;12.80;99.90;;;;;;4901725;29;20067;-69
2021/10/19 02:10:12;;;;;;;18.83;16.25;;;12.80;99.90;;;;;;4927774;29;20072;-68
2021/10/19 02:12:40;;;;;;;20.40;15.68;;;12.80;99.90;;;;;;4912900;29;20072;-68
2021/10/19 02:15:06;;;;;;;20.77;15.85;;;12.80;99.90;;;;;;4912855;29;20127;-68
2021/10/19 02:17:32;;;;;;;18.63;15.80;;;12.80;99.90;;;;;;4896673;29;20052;-69
2021/10/19 02:20:00;;;;;;;22.52;16.48;;;12.80;99.90;;;;;;4912512;29;20059;-68
2021/10/19 02:22:27;;;;;;;19.35;15.30;;;12.80;99.90;;;;;;4912368;29;20413;-69
2021/10/19 02:24:54;;;;;;;19.40;16.67;;;12.80;99.90;;;;;;4929433;29;20048;-69
2021/10/19 02:27:19;;;;;;;19.92;15.70;;;12.80;99.90;;;;;;4912342;29;20048;-69
2021/10/19 02:29:45;;;;;;;19.05;15.75;;;12.80;99.90;;;;;;4944262;29;20512;-69
2021/10/19 02:32:11;;;;;;;18.23;15.90;;;12.80;99.90;;;;;;4929696;29;20044;-69
2021/10/19 02:34:37;;;;;;;20.02;15.75;;;12.80;99.90;;;;;;4927593;29;20044;-69
2021/10/19 02:37:03;;;;;;;21.45;16.50;;;12.80;99.90;;;;;;4895509;29;20056;-69
2021/10/19 02:39:28;;;;;;;20.92;16.23;;;12.80;99.90;;;;;;4912991;29;20040;-69
2021/10/19 02:41:54;;;;;;;18.52;15.63;;;12.80;99.90;;;;;;4944163;29;20099;-69
2021/10/19 02:44:20;;;;;;;21.10;16.17;;;12.80;99.90;;;;;;4944150;29;20104;-69
2021/10/19 02:46:46;;;;;;;19.83;16.02;;;12.80;99.90;;;;;;4911535;29;20554;-69
2021/10/19 02:49:11;;;;;;;19.27;15.30;;;12.80;99.90;;;;;;4911920;29;20051;-68
2021/10/19 02:51:37;;;;;;;21.67;16.52;;;12.70;99.90;;;;;;4943411;29;20067;-69
2021/10/19 02:54:03;;;;;;;20.30;16.42;;;12.80;99.90;;;;;;4924635;29;20132;-69
2021/10/19 02:56:29;;;;;;;20.30;17.13;;;12.80;99.90;;;;;;4908415;29;20134;-68
2021/10/19 02:58:54;;;;;;;20.42;15.98;;;12.80;99.90;;;;;;4907964;29;20048;-68
2021/10/19 03:01:20;;;;;;;20.42;16.58;;;12.80;99.90;;;;;;4908614;29;20193;-68
2021/10/19 03:03:46;;;;;;;20.10;16.52;;;12.80;99.90;;;;;;4910768;29;20048;-68
2021/10/19 03:06:11;;;;;;;21.48;16.75;;;12.80;99.90;;;;;;4916210;29;20103;-68
2021/10/19 03:08:37;;;;;;;22.63;17.35;;;12.80;99.90;;;;;;4912290;29;20052;-68
2021/10/19 03:11:03;;;;;;;18.95;15.45;;;12.80;99.90;;;;;;4909197;29;20052;-68
2021/10/19 03:13:28;;;;;;;22.40;16.50;;;12.80;99.90;;;;;;4908061;29;20059;-68
2021/10/19 03:15:55;;;;;;;23.25;17.40;;;12.80;99.90;;;;;;4908993;29;20059;-68
2021/10/19 03:18:21;;;;;;;18.58;15.15;;;12.80;99.90;;;;;;4909317;29;20532;-69
2021/10/19 03:20:47;;;;;;;18.65;15.30;;;12.90;99.90;;;;;;4909705;29;20426;-69
2021/10/19 03:23:13;;;;;;;22.98;16.17;;;12.80;99.90;;;;;;4908944;29;20101;-69
2021/10/19 03:25:39;;;;;;;23.23;16.50;;;12.80;99.90;;;;;;4908232;29;20049;-69
2021/10/19 03:28:05;;;;;;;20.02;15.48;;;12.80;99.90;;;;;;4909163;29;20051;-69
2021/10/19 03:30:31;;;;;;;23.10;17.67;;;12.80;99.90;;;;;;4907736;29;20044;-69
2021/10/19 03:32:56;;;;;;;23.17;16.90;;;12.90;99.90;;;;;;4907701;29;20045;-69
2021/10/19 03:35:22;;;;;;;21.70;16.17;;;12.80;99.90;;;;;;4908274;29;20052;-69
2021/10/19 03:37:48;;;;;;;18.63;15.20;;;12.80;99.90;;;;;;4908704;29;20048;-69
2021/10/19 03:40:14;;;;;;;21.45;16.15;;;12.80;99.90;;;;;;4904660;29;20037;-68
2021/10/19 03:42:47;;;;;;;18.90;15.00;;;12.80;99.90;;;;;;4934214;29;20085;-68
2021/10/19 03:45:14;;;;;;;23.33;16.27;;;12.80;99.90;;;;;;4907886;29;20414;-69
2021/10/19 03:47:40;;;;;;;22.10;16.88;;;12.80;99.90;;;;;;4924512;29;20088;-69
2021/10/19 03:50:07;;;;;;;21.50;16.98;;;12.80;99.90;;;;;;4909027;29;20052;-69
2021/10/19 03:52:32;;;;;;;21.15;15.85;;;12.80;99.90;;;;;;4907788;29;20056;-69
2021/10/19 03:54:58;;;;;;;19.25;16.25;;;12.80;99.90;;;;;;4907549;29;20076;-69
2021/10/19 03:57:24;;;;;;;18.88;16.15;;;12.80;99.90;;;;;;4907852;29;20052;-69
2021/10/19 03:59:49;;;;;;;20.20;15.48;;;12.80;99.90;;;;;;4906605;29;20056;-69
2021/10/19 04:02:15;;;;;;;20.30;15.63;;;12.90;99.90;;;;;;4902404;29;20060;-68
2021/10/19 04:04:41;;;;;;;19.50;15.52;;;12.80;99.90;;;;;;4907505;29;20080;-68
2021/10/19 04:07:06;;;;;;;20.00;15.45;;;12.90;99.90;;;;;;4908259;29;20072;-69
2021/10/19 04:09:32;;;;;;;18.65;15.73;;;12.90;99.90;;;;;;4907029;29;20044;-69
2021/10/19 04:11:58;;;;;;;22.20;16.30;;;12.90;99.90;;;;;;4907567;29;20062;-68
2021/10/19 04:14:23;;;;;;;23.33;16.30;;;12.90;99.90;;;;;;4891699;29;20532;-69
2021/10/19 04:16:49;;;;;;;17.63;14.45;;;12.90;99.90;;;;;;4888757;29;20064;-69
2021/10/19 04:19:16;;;;;;;18.30;15.05;;;12.90;99.90;;;;;;4906784;29;20044;-69
2021/10/19 04:21:45;;;;;;;20.92;16.52;;;12.90;99.90;;;;;;4907702;29;20141;-69
2021/10/19 04:24:12;;;;;;;22.88;17.58;;;12.90;99.90;;;;;;4908090;29;20060;-69
2021/10/19 04:26:37;;;;;;;20.92;15.90;;;12.90;99.90;;;;;;4907492;29;20125;-69
2021/10/19 04:29:04;;;;;;;20.50;15.00;;;12.90;99.90;;;;;;4907017;29;20095;-69
2021/10/19 04:31:31;;;;;;;20.45;15.85;;;12.90;99.90;;;;;;4907261;29;20048;-69
2021/10/19 04:33:59;;;;;;;20.65;15.32;;;12.90;99.90;;;;;;4906931;29;20053;-69
2021/10/19 04:36:26;;;;;;;20.25;16.85;;;13.00;99.90;;;;;;4907157;29;20060;-69
2021/10/19 04:38:51;;;;;;;23.23;17.08;;;13.00;99.90;;;;;;4908641;29;20048;-69
2021/10/19 04:41:17;;;;;;;18.88;15.40;;;13.00;99.90;;;;;;4906895;29;20059;-69
2021/10/19 04:43:43;;;;;;;19.05;16.63;;;13.00;99.90;;;;;;4908757;29;20037;-69
2021/10/19 04:46:08;;;;;;;20.50;17.50;;;13.00;99.90;;;;;;4907827;29;20053;-69
2021/10/19 04:48:34;;;;;;;21.90;15.63;;;13.00;99.90;;;;;;4907421;29;20057;-69
2021/10/19 04:51:00;;;;;;;20.42;16.05;;;13.00;99.90;;;;;;4907488;29;20056;-69
2021/10/19 04:53:26;;;;;;;22.10;15.82;;;13.10;99.90;;;;;;4909277;29;20072;-69
2021/10/19 04:55:51;;;;;;;22.50;16.88;;;13.10;99.90;;;;;;4942236;29;20417;-69
2021/10/19 04:58:17;;;;;;;20.40;16.50;;;13.10;99.90;;;;;;4941971;29;20060;-69
2021/10/19 05:00:46;;;;;;;19.35;15.02;;;13.10;99.90;;;;;;4910161;29;20048;-69
2021/10/19 05:03:12;;;;;;;19.33;15.40;;;13.10;99.90;;;;;;4910330;29;20056;-69
2021/10/19 05:05:38;;;;;;;21.70;15.15;;;13.10;99.90;;;;;;4926311;29;20477;-69
2021/10/19 05:08:04;;;;;;;18.77;14.75;;;13.10;99.90;;;;;;4917752;29;20056;-69
2021/10/19 05:10:30;;;;;;;20.90;15.65;;;13.10;99.90;;;;;;4910084;29;20058;-69
2021/10/19 05:12:56;;;;;;;20.38;16.40;;;13.10;99.90;;;;;;4910137;29;20107;-69
2021/10/19 05:15:21;;;;;;;18.15;14.95;;;13.10;99.90;;;;;;4941708;29;20560;-69
2021/10/19 05:17:47;;;;;;;20.70;15.57;;;13.20;99.90;;;;;;4941710;29;20055;-69
2021/10/19 05:20:13;;;;;;;20.45;15.60;;;13.20;99.90;;;;;;4942069;29;20100;-68
2021/10/19 05:22:39;;;;;;;20.80;16.00;;;13.20;99.90;;;;;;4945182;29;20048;-68
2021/10/19 05:25:05;;;;;;;20.48;15.25;;;13.20;99.90;;;;;;4914012;29;20044;-68
2021/10/19 05:27:30;;;;;;;20.30;14.90;;;13.20;99.90;;;;;;4914971;29;20052;-68
2021/10/19 05:29:56;;;;;;;19.23;15.02;;;13.20;99.90;;;;;;4930400;29;20055;-68
2021/10/19 05:32:22;;;;;;;21.13;16.17;;;13.20;99.90;;;;;;4944775;29;20059;-68
2021/10/19 05:34:47;;;;;;;20.10;15.10;;;13.20;99.90;;;;;;4913354;29;20141;-69
2021/10/19 05:37:13;;;;;;;19.70;16.23;;;13.20;99.90;;;;;;4946368;29;20119;-69
2021/10/19 05:39:41;;;;;;;21.52;16.50;;;13.20;99.90;;;;;;4914130;29;20048;-69
2021/10/19 05:42:07;;;;;;;20.65;15.88;;;13.20;99.90;;;;;;4946105;29;20501;-69
2021/10/19 05:44:33;;;;;;;24.08;17.58;;;13.20;99.90;;;;;;4917567;29;20049;-69
2021/10/19 05:46:58;;;;;;;23.65;16.50;;;13.20;99.90;;;;;;4944844;29;20052;-69
2021/10/19 05:49:24;;;;;;;23.98;16.77;;;13.20;99.90;;;;;;4944098;29;20107;-69
2021/10/19 05:51:53;;;;;;;28.58;18.02;;;13.20;99.90;;;;;;4944342;29;20056;-69
2021/10/19 05:54:19;;;;;;;25.13;17.80;;;13.20;99.90;;;;;;4904838;29;20075;-69
2021/10/19 05:56:44;;;;;;;24.15;18.50;;;13.20;99.90;;;;;;4928799;29;20411;-68
2021/10/19 05:59:10;;;;;;;28.90;20.45;;;13.20;99.90;;;;;;4926386;29;20044;-69
2021/10/19 06:01:36;;;;;;;26.25;19.73;;;13.10;99.90;;;;;;4907422;29;20568;-72
2021/10/19 06:04:01;;;;;;;24.52;19.23;;;13.10;99.90;;;;;;4924641;29;20051;-72
2021/10/19 06:06:27;;;;;;;25.13;19.08;;;13.10;99.90;;;;;;4908957;29;20056;-73
2021/10/19 06:08:53;;;;;;;27.60;20.35;;;13.10;99.90;;;;;;4942082;29;20044;-73
2021/10/19 06:11:19;;;;;;;26.90;19.23;;;13.10;99.90;;;;;;4943441;29;20076;-72
2021/10/19 06:13:45;;;;;;;25.63;20.30;;;13.10;99.90;;;;;;4941633;29;20103;-72
2021/10/19 06:16:11;;;;;;;24.02;19.52;;;13.10;99.90;;;;;;4910255;29;20055;-72
2021/10/19 06:18:37;;;;;;;23.40;18.55;;;13.10;99.90;;;;;;4942526;29;20048;-73
2021/10/19 06:21:03;;;;;;;24.92;20.20;;;13.10;99.90;;;;;;4910663;29;20059;-72
2021/10/19 06:23:29;;;;;;;25.98;19.88;;;13.10;99.90;;;;;;4909279;29;20044;-73
2021/10/19 06:25:55;;;;;;;28.67;20.30;;;13.10;99.90;;;;;;4942592;29;20153;-72
2021/10/19 06:28:20;;;;;;;25.48;20.23;;;13.20;99.90;;;;;;4944285;29;20058;-72
2021/10/19 06:30:46;;;;;;;31.33;22.40;;;13.10;99.90;;;;;;4912471;29;20052;-72
2021/10/19 06:33:12;;;;;;;27.23;20.88;;;13.20;99.90;;;;;;4926928;29;20493;-72
2021/10/19 06:35:40;;;;;;;27.38;20.77;;;13.10;99.90;;;;;;4910477;29;20051;-70
2021/10/19 06:38:06;;;;;;;28.15;20.05;;;13.10;99.90;;;;;;4910709;29;20095;-74
2021/10/19 06:40:31;;;;;;;26.52;20.45;;;13.20;99.90;;;;;;4910058;29;20099;-62
2021/10/19 06:42:57;;;;;;;39.08;22.13;;;13.20;99.90;;;;;;4899008;29;20392;-62
2021/10/19 06:45:23;;;;;;;31.30;19.67;;;13.20;99.90;;;;;;4909203;29;20548;-62
2021/10/19 06:47:49;;;;;;;24.45;20.17;;;13.20;99.90;;;;;;4906126;29;20060;-62
2021/10/19 06:50:15;;;;;;;30.40;22.20;;;13.20;99.90;;;;;;4906294;29;20036;-62
2021/10/19 06:52:40;;;;;;;28.02;22.35;;;13.20;99.90;;;;;;4904090;29;20277;-62
2021/10/19 06:55:07;;;;;;;26.00;20.60;;;13.20;99.90;;;;;;4890692;29;20078;-62
2021/10/19 06:57:43;;;;;;;26.67;21.15;;;13.30;99.90;;;;;;4901064;29;20126;-62
2021/10/19 07:00:15;;;;;;;26.77;21.17;;;13.30;99.90;;;;;;4910057;29;20052;-62
2021/10/19 07:02:41;;;;;;;30.30;21.38;;;13.30;99.90;;;;;;4901923;29;20367;-62
2021/10/19 07:05:07;;;;;;;28.50;21.70;;;13.30;99.90;;;;;;4922616;29;20046;-63
2021/10/19 07:07:34;;;;;;;27.40;21.13;;;13.40;99.90;;;;;;4902115;29;20162;-62
2021/10/19 07:10:00;;;;;;;28.42;22.30;;;13.40;99.90;;;;;;4913718;29;20409;-62
2021/10/19 07:12:27;;;;;;;25.00;19.65;;;13.30;99.90;;;;;;4899238;29;20091;-62
2021/10/19 07:14:53;;;;;;;24.23;20.30;;;13.40;99.90;;;;;;4913739;29;20045;-62
2021/10/19 07:17:18;;;;;;;27.05;19.63;;;13.40;99.90;;;;;;4899365;29;20075;-62
2021/10/19 07:19:46;;;;;;;26.42;19.83;;;13.50;99.90;;;;;;4929438;29;20514;-62
2021/10/19 07:22:12;;;;;;;26.63;20.85;;;13.50;99.90;;;;;;4919504;29;20052;-63
2021/10/19 07:24:38;;;;;;;25.50;19.88;;;13.50;99.90;;;;;;4915116;29;20477;-62
2021/10/19 07:27:04;;;;;;;27.98;21.35;;;13.50;99.90;;;;;;4901292;29;20048;-62
2021/10/19 07:29:29;;;;;;;28.83;20.48;;;13.60;99.90;;;;;;4931920;29;20056;-63
2021/10/19 07:31:55;;;;;;;22.85;18.73;;;13.60;99.90;;;;;;4904036;29;20049;-62
2021/10/19 07:34:21;;;;;;;25.13;19.50;;;13.60;99.90;;;;;;4910321;29;20072;-63
2021/10/19 07:36:47;;;;;;;22.98;19.45;;;13.60;99.90;;;;;;4902016;29;20236;-63
2021/10/19 07:39:12;;;;;;;23.35;18.90;;;13.70;99.90;;;;;;4909525;29;20418;-63
2021/10/19 07:41:38;;;;;;;26.80;19.30;;;13.70;99.90;;;;;;4901053;29;20049;-63
2021/10/19 07:44:06;;;;;;;21.83;18.17;;;13.70;99.90;;;;;;4909525;29;20520;-63
2021/10/19 07:46:33;;;;;;;22.13;17.92;;;13.70;99.90;;;;;;4925173;29;20052;-61
2021/10/19 07:48:58;;;;;;;19.58;17.02;;;13.70;99.90;;;;;;4925740;29;20052;-61
2021/10/19 07:51:24;;;;;;;20.40;17.33;;;13.80;99.90;;;;;;4900368;29;20053;-61
2021/10/19 07:53:50;;;;;;;22.25;17.63;;;13.70;99.90;;;;;;4901711;29;20035;-61
2021/10/19 07:56:22;;;;;;;21.65;18.55;;;13.80;99.90;;;;;;4905487;29;20044;-61
2021/10/19 07:58:48;;;;;;;22.02;17.45;;;13.80;99.90;;;;;;4919101;29;20059;-61
2021/10/19 08:01:14;;;;;;;21.65;18.13;;;13.80;99.90;;;;;;4906964;29;20060;-61
2021/10/19 08:03:40;;;;;;;22.00;16.52;;;13.90;99.90;;;;;;4910365;29;20478;-61
2021/10/19 08:06:06;;;;;;;20.63;17.30;;;13.90;99.90;;;;;;4889474;29;20052;-61
2021/10/19 08:08:34;;;;;;;22.90;18.20;;;13.90;99.90;;;;;;4914770;29;20048;-61
2021/10/19 08:11:00;;;;;;;21.45;17.83;;;13.90;99.90;;;;;;4905112;29;20112;-61
2021/10/19 08:13:26;;;;;;;21.70;18.35;;;13.90;99.90;;;;;;4915375;29;20048;-61
2021/10/19 08:15:52;;;;;;;23.60;18.08;;;13.90;99.90;;;;;;4897882;29;20444;-61
2021/10/19 08:18:18;;;;;;;18.63;16.42;;;13.90;99.90;;;;;;4907080;29;20048;-61
2021/10/19 08:20:44;;;;;;;21.95;18.30;;;13.90;99.90;;;;;;4906693;29;20044;-61
2021/10/19 08:23:10;;;;;;;20.15;18.00;;;14.00;99.90;;;;;;4910062;29;20146;-62
2021/10/19 08:25:38;;;;;;;20.08;17.95;;;14.00;99.90;;;;;;4918927;29;20046;-61
2021/10/19 08:28:04;;;;;;;19.70;17.02;;;14.00;99.90;;;;;;4906819;29;20114;-61
2021/10/19 08:30:30;;;;;;;19.20;16.48;;;14.00;99.90;;;;;;4908564;29;20036;-61
2021/10/19 08:32:56;;;;;;;19.33;16.52;;;14.00;99.90;;;;;;4906131;29;20122;-61
2021/10/19 08:35:23;;;;;;;22.90;17.52;;;14.00;99.90;;;;;;4909702;29;20104;-62
2021/10/19 08:37:49;;;;;;;22.10;17.63;;;14.00;99.90;;;;;;4902821;29;20044;-61
2021/10/19 08:40:16;;;;;;;20.05;16.67;;;14.00;99.90;;;;;;4910047;29;20060;-61
2021/10/19 08:42:44;;;;;;;20.83;16.90;;;14.00;99.90;;;;;;4900691;29;20088;-61
2021/10/19 08:45:14;;;;;;;18.00;16.17;;;14.10;99.90;;;;;;4911539;29;20100;-63
2021/10/19 08:47:42;;;;;;;20.00;17.58;;;14.00;99.90;;;;;;4901221;29;20059;-61
2021/10/19 08:50:08;;;;;;;17.48;15.57;;;14.10;99.90;;;;;;4923484;29;20164;-61
2021/10/19 08:52:34;;;;;;;17.50;15.43;;;14.10;99.90;;;;;;4910129;29;20082;-62
2021/10/19 08:55:00;;;;;;;17.65;15.80;;;14.10;99.90;;;;;;4878832;29;20558;-61
2021/10/19 08:57:26;;;;;;;18.38;15.88;;;14.10;99.90;;;;;;4891166;29;20057;-61
2021/10/19 08:59:55;;;;;;;21.17;17.15;;;14.10;99.90;;;;;;4912916;29;20048;-61
2021/10/19 09:02:37;;;;;;;16.58;14.60;;;14.10;99.90;;;;;;4898522;29;20052;-61
2021/10/19 09:05:06;;;;;;;17.23;15.30;;;14.10;99.90;;;;;;4931236;29;20048;-61
2021/10/19 09:07:31;;;;;;;17.73;14.90;;;14.10;99.90;;;;;;4902494;29;20262;-61
2021/10/19 09:09:57;;;;;;;17.65;15.55;;;14.10;99.90;;;;;;4928948;29;20135;-62
2021/10/19 09:12:23;;;;;;;17.48;15.68;;;14.10;99.90;;;;;;4896711;29;20076;-62
2021/10/19 09:14:50;;;;;;;17.02;15.23;;;14.10;99.90;;;;;;4916134;29;20048;-61
2021/10/19 09:17:16;;;;;;;18.55;15.48;;;14.10;99.90;;;;;;4884711;29;20079;-63
2021/10/19 09:19:44;;;;;;;18.95;15.45;;;14.10;99.90;;;;;;4934946;29;20057;-61
2021/10/19 09:22:12;;;;;;;15.85;14.15;;;14.20;99.90;;;;;;4888086;29;20052;-62
2021/10/19 09:24:44;;;;;;;16.73;14.90;;;14.20;99.90;;;;;;4920160;29;20052;-61
2021/10/19 09:27:15;;;;;;;17.50;15.60;;;14.20;99.90;;;;;;4904751;29;20095;-61
2021/10/19 09:29:46;;;;;;;16.63;14.93;;;14.20;99.90;;;;;;4906955;29;20056;-61
2021/10/19 09:32:13;;;;;;;16.20;13.90;;;14.20;99.90;;;;;;4906852;29;20541;-60
2021/10/19 09:34:41;;;;;;;19.05;15.25;;;14.20;99.90;;;;;;4925892;29;20049;-61
2021/10/19 09:37:10;;;;;;;15.70;14.07;;;14.20;99.90;;;;;;4903862;29;20056;-61
2021/10/19 09:39:38;;;;;;;18.05;15.70;;;14.20;99.90;;;;;;4924783;29;20087;-61
2021/10/19 09:42:09;;;;;;;16.73;14.95;;;14.30;99.90;;;;;;4901250;29;21349;-62
2021/10/19 09:44:36;;;;;;;18.83;15.18;;;14.30;99.90;;;;;;4894508;29;20120;-61
2021/10/19 09:47:02;;;;;;;17.75;14.88;;;14.30;99.90;;;;;;4928427;29;20091;-61
2021/10/19 09:49:29;;;;;;;19.70;15.80;;;14.30;99.90;;;;;;4911960;29;20051;-61
2021/10/19 09:52:00;;;;;;;20.38;15.05;;;14.40;99.90;;;;;;4901767;29;20048;-61
2021/10/19 09:54:29;;;;;;;19.10;15.50;;;14.40;99.90;;;;;;4890882;29;20107;-61
2021/10/19 09:56:58;;;;;;;21.23;17.23;;;14.30;99.90;;;;;;4904681;29;20056;-61
2021/10/19 09:59:24;;;;;;;22.02;16.20;;;14.40;99.90;;;;;;4925254;29;20056;-63
2021/10/19 10:01:50;;;;;;;18.02;14.75;;;14.40;99.90;;;;;;4904088;29;20175;-62
2021/10/19 10:04:17;;;;;;;15.82;14.23;;;14.40;99.90;;;;;;4910790;29;20178;-61
2021/10/19 10:06:43;;;;;;;19.60;14.98;;;14.40;99.90;;;;;;4904368;29;20053;-62
2021/10/19 10:09:10;;;;;;;18.92;15.98;;;14.40;99.90;;;;;;4920440;29;20127;-61
2021/10/19 10:11:40;;;;;;;17.15;14.95;;;14.40;99.90;;;;;;4908382;29;20080;-61
2021/10/19 10:14:07;;;;;;;18.42;14.80;;;14.50;99.90;;;;;;4918983;29;20059;-61
2021/10/19 10:16:47;;;;;;;19.25;15.77;;;14.50;99.90;;;;;;4895546;29;20040;-61
2021/10/19 10:19:19;;;;;;;19.20;16.15;;;14.50;99.90;;;;;;4912413;29;20548;-61
2021/10/19 10:21:47;;;;;;;19.27;15.50;;;14.50;99.90;;;;;;4905492;29;20040;-61
2021/10/19 10:24:13;;;;;;;18.13;15.50;;;14.50;99.90;;;;;;4919912;29;20059;-61
2021/10/19 10:26:39;;;;;;;18.17;15.35;;;14.60;99.90;;;;;;4910207;29;20033;-61
2021/10/19 10:29:13;;;;;;;16.40;12.93;;;14.60;99.90;;;;;;4909264;29;20067;-61
2021/10/19 10:31:50;;;;;;;19.30;16.05;;;14.60;99.90;;;;;;4906035;29;20052;-61
2021/10/19 10:34:16;;;;;;;16.83;14.50;;;14.60;99.90;;;;;;4920334;29;20059;-61
2021/10/19 10:36:47;;;;;;;21.70;17.15;;;14.70;99.90;;;;;;4907868;29;20346;-61
2021/10/19 10:39:13;;;;;;;14.93;13.35;;;14.70;99.90;;;;;;4910653;29;20070;-61
2021/10/19 10:41:47;;;;;;;18.48;16.48;;;14.70;99.90;;;;;;4903603;29;20049;-61
2021/10/19 10:44:22;;;;;;;16.75;13.77;;;14.80;99.90;;;;;;4894840;29;20146;-60
2021/10/19 10:46:48;;;;;;;23.35;15.73;;;14.80;99.90;;;;;;4893847;29;20542;-62
2021/10/19 10:49:14;;;;;;;19.50;15.70;;;14.90;99.90;;;;;;4919456;29;20062;-61
2021/10/19 10:51:42;;;;;;;15.40;13.77;;;14.80;99.90;;;;;;4889591;29;20064;-61
2021/10/19 10:54:14;;;;;;;16.05;13.23;;;14.90;99.90;;;;;;4907609;29;20071;-60
2021/10/19 10:56:45;;;;;;;16.50;14.27;;;14.90;99.90;;;;;;4916195;29;20061;-60
2021/10/19 10:59:21;;;;;;;16.83;14.60;;;14.90;99.90;;;;;;4909919;29;20100;-61
2021/10/19 11:01:47;;;;;;;17.73;14.68;;;15.00;99.90;;;;;;4908011;29;20053;-62
2021/10/19 11:04:12;;;;;;;16.08;13.95;;;15.00;99.90;;;;;;4919733;29;20138;-60
2021/10/19 11:06:40;;;;;;;15.23;13.30;;;15.10;99.90;;;;;;4907614;29;20382;-60
2021/10/19 11:09:13;;;;;;;15.02;13.27;;;15.10;99.90;;;;;;4915024;29;20067;-61
2021/10/19 11:11:41;;;;;;;13.80;12.25;;;15.10;99.90;;;;;;4909257;29;20049;-61
2021/10/19 11:14:12;;;;;;;14.68;12.77;;;15.20;99.90;;;;;;4905571;29;20040;-61
2021/10/19 11:16:49;;;;;;;12.60;11.30;;;15.10;99.90;;;;;;4907137;29;20051;-61
2021/10/19 11:19:20;;;;;;;13.13;11.75;;;15.30;99.90;;;;;;4908615;29;20440;-61
2021/10/19 11:21:50;;;;;;;13.10;11.73;;;15.20;99.90;;;;;;4907734;29;20052;-61
2021/10/19 11:24:16;;;;;;;;;;;15.30;99.90;;;;;;4916982;29;20137;-61
2021/10/19 11:26:42;;;;;;;12.50;11.20;;;15.30;99.90;;;;;;4908548;29;19934;-60
2021/10/19 11:29:07;;;;;;;11.75;10.55;;;15.30;99.90;;;;;;4915295;29;20107;-61
2021/10/19 11:31:34;;;;;;;11.50;10.40;;;15.30;99.90;;;;;;4906894;29;20063;-61
2021/10/19 11:34:01;;;;;;;12.13;10.82;;;15.30;99.90;;;;;;4904850;29;20051;-61
2021/10/19 11:36:28;;;;;;;10.23;9.23;;;15.40;99.90;;;;;;4903728;29;20549;-61
2021/10/19 11:38:56;;;;;;;10.80;9.70;;;15.30;99.90;;;;;;4889689;29;20051;-61
2021/10/19 11:41:28;;;;;;;11.23;10.13;;;15.30;99.90;;;;;;4919454;29;20050;-60
2021/10/19 11:44:02;;;;;;;12.77;10.57;;;15.40;99.90;;;;;;4911033;29;20055;-61
2021/10/19 11:46:30;;;;;;;11.35;10.23;;;15.40;99.90;;;;;;4912269;29;20045;-60
2021/10/19 11:49:01;;;;;;;10.40;9.35;;;15.40;99.90;;;;;;4903206;29;20127;-61
2021/10/19 11:51:28;;;;;;;9.35;8.40;;;15.40;99.90;;;;;;4918684;29;20044;-60
2021/10/19 11:53:56;;;;;;;10.57;9.57;;;15.40;99.90;;;;;;4899378;29;20139;-61
2021/10/19 11:56:22;;;;;;;10.45;9.38;;;15.40;99.90;;;;;;4906683;29;20044;-60
2021/10/19 11:58:56;;;;;;;9.85;8.88;;;15.40;99.90;;;;;;4897357;29;20436;-61
2021/10/19 12:01:24;;;;;;;10.68;9.68;;;15.40;99.90;;;;;;4900274;29;20128;-60
2021/10/19 12:04:02;;;;;;;11.75;10.55;;;15.40;99.90;;;;;;4895393;29;20064;-61
2021/10/19 12:06:29;;;;;;;11.05;9.93;;;15.40;99.90;;;;;;4912593;29;20092;-61
2021/10/19 12:08:57;;;;;;;11.80;10.60;;;15.40;99.90;;;;;;4898821;29;20052;-61
2021/10/19 12:11:25;;;;;;;13.82;11.95;;;15.50;99.90;;;;;;4909179;29;20465;-60
2021/10/19 12:13:56;;;;;;;11.30;9.32;;;15.50;99.90;;;;;;4899408;29;20067;-61
2021/10/19 12:16:31;;;;;;;11.52;10.43;;;15.50;99.90;;;;;;4910081;29;20434;-61
2021/10/19 12:18:58;;;;;;;11.20;10.10;;;15.60;99.90;;;;;;4927456;29;20059;-60
2021/10/19 12:21:26;;;;;;;12.70;10.00;;;15.60;99.90;;;;;;4897984;29;20036;-61
2021/10/19 12:24:00;;;;;;;9.82;8.82;;;15.60;99.90;;;;;;4905977;29;20066;-61
2021/10/19 12:26:28;;;;;;;11.80;10.60;;;15.60;99.90;;;;;;4906755;29;20100;-60